Terminal Aerodrome Forecast
Issued by NWS Duluth, MN

Home | Current Version | Previous Version | Text Only | Print | Product List | Glossary On
Versions: 1 2 3 4 5 6 7 8 9 10 11 12 13 14 15 16 17 18 19 20 21
000
FTUS43 KDLH 190000 AAA
TAFINL
TAF AMD
KINL 190050Z 1901/1924 14010KT P6SM SKC
     FM190200 13008KT P6SM BKN150
     FM191100 12007KT P6SM -RA SCT015 OVC050
     FM191400 12004KT 5SM -RA OVC012
     FM191800 20005KT 6SM -RA BR OVC012=

USA.gov is the U.S. government's official web portal to all federal, state and local government web resources and services.